createdAt,value
2022-08-05T00:00:32.127Z,6.12
2022-08-05T00:02:58.779Z,5.87
2022-08-05T00:05:27.222Z,5.62
2022-08-05T00:08:34.395Z,6.45
2022-08-05T00:11:20.647Z,6.18
2022-08-05T00:13:57.217Z,5.87
2022-08-05T00:16:35.879Z,5.43
2022-08-05T00:19:18.456Z,6.07
2022-08-05T00:21:48.762Z,5.70
2022-08-05T00:24:18.892Z,5.80
2022-08-05T00:26:52.828Z,5.55
2022-08-05T00:29:22.711Z,6.22
2022-08-05T00:32:13.087Z,5.65
2022-08-05T00:35:03.424Z,6.00
2022-08-05T00:37:51.222Z,6.00
2022-08-05T00:40:26.780Z,6.15
2022-08-05T00:43:01.757Z,6.20
2022-08-05T00:45:38.548Z,5.60
2022-08-05T00:48:10.535Z,5.35
2022-08-05T00:50:44.043Z,5.82
2022-08-05T00:54:01.084Z,6.20
2022-08-05T00:56:29.398Z,6.47
2022-08-05T00:58:57.091Z,5.62
2022-08-05T01:01:42.043Z,5.60
2022-08-05T01:04:13.553Z,5.65
2022-08-05T01:06:40.933Z,6.03
2022-08-05T01:09:10.189Z,5.65
2022-08-05T01:11:40.089Z,5.82
2022-08-05T01:14:47.018Z,5.53
2022-08-05T01:17:53.979Z,5.68
2022-08-05T01:21:23.176Z,5.03
2022-08-05T01:27:00.767Z,5.85
2022-08-05T01:29:49.495Z,5.95
2022-08-05T01:32:24.923Z,6.05
2022-08-05T01:35:10.959Z,5.35
2022-08-05T01:38:26.994Z,5.57
2022-08-05T01:40:58.834Z,5.80
2022-08-05T01:43:27.781Z,5.20
2022-08-05T01:45:57.211Z,5.28
2022-08-05T01:48:27.625Z,5.80
2022-08-05T01:50:56.226Z,5.87
2022-08-05T01:53:57.742Z,5.10
2022-08-05T01:58:10.549Z,5.90
2022-08-05T02:00:50.605Z,5.75
2022-08-05T02:03:31.583Z,6.15
2022-08-05T02:06:03.535Z,4.95
2022-08-05T02:08:58.613Z,5.28
2022-08-05T02:11:36.935Z,5.60
2022-08-05T02:14:20.220Z,5.90
2022-08-05T02:16:53.854Z,6.68
2022-08-05T02:19:48.982Z,5.62
2022-08-05T02:23:01.603Z,5.53
2022-08-05T02:25:49.239Z,5.22
2022-08-05T02:28:29.279Z,5.78
2022-08-05T02:31:21.365Z,5.72
2022-08-05T02:33:58.082Z,5.32
2022-08-05T02:36:31.234Z,5.53
2022-08-05T02:39:01.195Z,6.53
2022-08-05T02:41:43.430Z,6.37
2022-08-05T02:44:29.854Z,6.30
2022-08-05T02:47:00.874Z,6.30
2022-08-05T02:49:36.905Z,6.28
2022-08-05T02:52:09.890Z,5.78
2022-08-05T02:54:42.723Z,5.32
2022-08-05T02:58:19.735Z,6.03
2022-08-05T03:00:47.594Z,5.05
2022-08-05T03:03:19.101Z,4.62
2022-08-05T03:06:53.705Z,5.53
2022-08-05T03:09:36.350Z,6.22
2022-08-05T03:12:06.398Z,5.40
2022-08-05T03:14:34.926Z,5.68
2022-08-05T03:17:12.486Z,5.37
2022-08-05T03:19:41.906Z,5.22
2022-08-05T03:22:16.402Z,5.55
2022-08-05T03:24:47.072Z,5.40
2022-08-05T03:27:14.488Z,5.15
2022-08-05T03:29:44.708Z,5.43
2022-08-05T03:32:34.045Z,5.82
2022-08-05T03:35:02.152Z,5.93
2022-08-05T03:37:31.339Z,5.50
2022-08-05T03:40:13.806Z,5.93
2022-08-05T03:42:52.386Z,5.85
2022-08-05T03:45:21.672Z,5.78
2022-08-05T03:47:50.107Z,5.72
2022-08-05T03:50:16.869Z,5.18
2022-08-05T03:55:53.789Z,4.85
2022-08-05T03:57:42.450Z,5.55
2022-08-05T04:00:15.938Z,5.62
2022-08-05T04:02:57.807Z,5.32
2022-08-05T04:05:33.205Z,5.90
2022-08-05T04:08:14.672Z,5.95
2022-08-05T04:10:58.577Z,6.05
2022-08-05T04:13:26.251Z,5.68
2022-08-05T04:16:16.775Z,5.70
2022-08-05T04:18:54.198Z,6.43
2022-08-05T04:22:08.467Z,6.07
2022-08-05T04:24:43.875Z,6.32
2022-08-05T04:27:15.231Z,6.12
2022-08-05T04:29:42.065Z,5.12
2022-08-05T04:32:09.384Z,5.20
2022-08-05T04:34:42.337Z,5.28
2022-08-05T04:37:09.729Z,5.87
2022-08-05T04:39:37.444Z,5.53
2022-08-05T04:42:06.553Z,5.87
2022-08-05T04:44:33.195Z,5.60
2022-08-05T04:47:09.068Z,6.43
2022-08-05T04:50:01.422Z,6.12
2022-08-05T04:52:28.831Z,6.03
2022-08-05T04:54:57.079Z,6.18
2022-08-05T04:57:28.965Z,6.00
2022-08-05T04:59:56.979Z,6.05
2022-08-05T05:02:41.166Z,5.97
2022-08-05T05:05:16.605Z,6.30
2022-08-05T05:07:56.639Z,6.12
2022-08-05T05:10:29.617Z,6.18
2022-08-05T05:12:56.798Z,6.00
2022-08-05T05:15:54.424Z,5.78
2022-08-05T05:18:28.431Z,6.22
2022-08-05T05:21:01.057Z,6.32
2022-08-05T05:23:38.842Z,5.60
2022-08-05T05:26:32.739Z,5.30
2022-08-05T05:28:59.614Z,5.22
2022-08-05T05:31:26.106Z,5.75
2022-08-05T05:33:59.346Z,5.87
2022-08-05T05:36:29.672Z,5.62
2022-08-05T05:38:56.790Z,5.45
2022-08-05T05:41:23.671Z,5.80
2022-08-05T05:43:57.502Z,5.20
2022-08-05T05:46:26.703Z,5.85
2022-08-05T05:48:53.309Z,5.60
2022-08-05T05:51:25.603Z,5.62
2022-08-05T05:53:58.665Z,5.22
2022-08-05T05:56:33.047Z,5.15
2022-08-05T05:59:05.696Z,5.78
2022-08-05T06:01:40.473Z,5.22
2022-08-05T06:04:23.997Z,5.37
2022-08-05T06:06:50.556Z,5.45
2022-08-05T06:09:27.443Z,4.93
2022-08-05T06:12:27.120Z,5.55
2022-08-05T06:14:53.850Z,5.40
2022-08-05T06:17:22.513Z,5.07
2022-08-05T06:19:57.001Z,5.32
2022-08-05T06:22:33.528Z,5.30
2022-08-05T06:25:24.994Z,5.25
2022-08-05T06:28:27.414Z,4.90
2022-08-05T06:30:55.311Z,5.32
2022-08-05T06:33:33.325Z,5.15
2022-08-05T06:36:37.461Z,5.28
2022-08-05T06:39:27.373Z,5.37
2022-08-05T06:41:57.417Z,5.10
2022-08-05T06:44:26.051Z,5.57
2022-08-05T06:46:54.492Z,5.55
2022-08-05T06:50:01.458Z,5.82
2022-08-05T06:52:36.942Z,5.15
2022-08-05T06:55:06.663Z,5.03
2022-08-05T06:58:02.824Z,5.30
2022-08-05T07:00:37.968Z,4.97
2022-08-05T07:03:09.828Z,5.40
2022-08-05T07:05:37.305Z,5.40
2022-08-05T07:08:05.122Z,5.47
2022-08-05T07:10:32.706Z,5.40
2022-08-05T07:13:17.855Z,5.18
2022-08-05T07:17:57.077Z,5.50
2022-08-05T07:20:33.276Z,5.60
2022-08-05T07:23:00.730Z,5.90
2022-08-05T07:25:55.069Z,5.55
2022-08-05T07:28:26.283Z,5.62
2022-08-05T07:30:54.853Z,6.10
2022-08-05T07:33:36.971Z,6.30
2022-08-05T07:36:20.054Z,5.85
2022-08-05T07:38:47.682Z,5.87
2022-08-05T07:42:14.353Z,6.00
2022-08-05T07:44:42.371Z,5.18
2022-08-05T07:47:14.823Z,5.75
2022-08-05T07:49:43.577Z,5.28
2022-08-05T07:52:21.311Z,5.20
2022-08-05T07:54:50.497Z,5.00
2022-08-05T07:57:51.269Z,5.18
2022-08-05T08:00:25.541Z,5.28
2022-08-05T08:03:15.219Z,4.82
2022-08-05T08:05:49.317Z,5.22
2022-08-05T08:08:19.753Z,5.22
2022-08-05T08:10:48.645Z,5.03
2022-08-05T08:13:21.735Z,4.47
2022-08-05T08:16:49.850Z,4.80
2022-08-05T08:20:10.848Z,4.93
2022-08-05T08:23:11.711Z,5.03
2022-08-05T08:26:30.267Z,4.87
2022-08-05T08:29:21.814Z,4.45
2022-08-05T08:32:35.494Z,4.40
2022-08-05T08:35:13.640Z,4.80
2022-08-05T08:37:40.469Z,4.10
2022-08-05T08:40:12.302Z,4.30
2022-08-05T08:42:50.787Z,9.20
2022-08-05T08:45:26.806Z,10.00
2022-08-05T08:48:12.621Z,5.25
2022-08-05T08:51:30.610Z,4.78
2022-08-05T08:54:31.739Z,5.30
2022-08-05T08:57:00.805Z,5.40
2022-08-05T08:59:33.491Z,5.18
2022-08-05T09:02:05.989Z,5.30
2022-08-05T09:04:57.922Z,4.72
2022-08-05T09:07:28.758Z,5.37
2022-08-05T09:09:56.191Z,5.68
2022-08-05T09:12:27.349Z,5.60
2022-08-05T09:14:59.500Z,5.90
2022-08-05T09:17:42.518Z,5.85
2022-08-05T09:20:12.018Z,6.85
2022-08-05T09:23:09.235Z,5.55
2022-08-05T09:26:03.367Z,5.53
2022-08-05T09:28:34.497Z,6.28
2022-08-05T09:32:35.962Z,6.35
2022-08-05T09:35:26.747Z,5.87
2022-08-05T09:38:12.433Z,6.18
2022-08-05T09:40:52.221Z,5.75
2022-08-05T09:43:41.345Z,5.93
2022-08-05T09:46:32.401Z,5.57
2022-08-05T09:49:08.064Z,5.18
2022-08-05T09:51:48.770Z,5.50
2022-08-05T09:54:16.485Z,6.03
2022-08-05T09:56:57.599Z,5.60
2022-08-05T09:59:28.031Z,5.78
2022-08-05T10:01:58.032Z,5.57
2022-08-05T10:04:38.630Z,5.30
2022-08-05T10:07:20.598Z,4.80
2022-08-05T10:10:48.323Z,4.47
2022-08-05T10:13:47.699Z,4.97
2022-08-05T10:16:41.797Z,5.05
2022-08-05T10:19:23.473Z,5.30
2022-08-05T10:21:58.822Z,4.62
2022-08-05T10:24:27.102Z,4.82
2022-08-05T10:26:55.864Z,4.40
2022-08-05T10:30:41.878Z,4.57
2022-08-05T10:33:59.699Z,5.03
2022-08-05T10:36:27.763Z,4.75
2022-08-05T10:39:11.817Z,4.93
2022-08-05T10:42:32.587Z,4.62
2022-08-05T10:45:20.807Z,5.20
2022-08-05T10:48:31.907Z,4.60
2022-08-05T10:51:21.751Z,4.65
2022-08-05T10:54:01.630Z,4.93
2022-08-05T10:56:55.143Z,5.32
2022-08-05T11:00:03.741Z,4.85
2022-08-05T11:02:38.776Z,5.00
2022-08-05T11:05:10.466Z,4.70
2022-08-05T11:08:02.582Z,4.40
2022-08-05T11:10:38.038Z,5.20
2022-08-05T11:13:54.907Z,4.47
2022-08-05T11:16:33.688Z,4.70
2022-08-05T11:20:17.484Z,5.60
2022-08-05T11:22:49.795Z,4.57
2022-08-05T11:26:05.039Z,4.90
2022-08-05T11:28:46.586Z,5.07
2022-08-05T11:31:57.404Z,4.68
2022-08-05T11:34:39.866Z,5.00
2022-08-05T11:38:30.793Z,5.05
2022-08-05T11:41:56.506Z,5.15
2022-08-05T11:44:54.147Z,4.85
2022-08-05T11:47:49.011Z,4.70
2022-08-05T11:50:17.460Z,4.55
2022-08-05T11:52:46.100Z,4.87
2022-08-05T11:55:15.560Z,4.82
2022-08-05T11:58:10.385Z,4.55
2022-08-05T12:00:39.309Z,4.80
2022-08-05T12:03:28.710Z,4.55
2022-08-05T12:06:03.365Z,5.10
2022-08-05T12:08:47.911Z,4.55
2022-08-05T12:11:23.258Z,4.62
2022-08-05T12:14:04.121Z,5.10
2022-08-05T12:16:38.524Z,4.43
2022-08-05T12:19:10.365Z,5.20
2022-08-05T12:23:06.567Z,4.90
2022-08-05T12:25:57.581Z,4.72
2022-08-05T12:28:36.744Z,5.03
2022-08-05T12:31:04.885Z,4.55
2022-08-05T12:33:36.280Z,4.62
2022-08-05T12:36:08.104Z,4.97
2022-08-05T12:38:39.727Z,4.72
2022-08-05T12:41:13.491Z,4.95
2022-08-05T12:44:00.056Z,5.00
2022-08-05T12:46:31.428Z,5.12
2022-08-05T12:49:13.032Z,5.00
2022-08-05T12:53:37.018Z,4.60
2022-08-05T12:56:35.395Z,4.72
2022-08-05T13:00:08.202Z,4.90
2022-08-05T13:03:59.348Z,5.18
2022-08-05T13:06:26.442Z,4.68
2022-08-05T13:08:53.045Z,4.97
2022-08-05T13:12:01.179Z,4.80
2022-08-05T13:14:46.325Z,4.47
2022-08-05T13:17:42.269Z,4.47
2022-08-05T13:20:14.861Z,4.68
2022-08-05T13:22:51.630Z,4.95
2022-08-05T13:25:22.008Z,5.10
2022-08-05T13:28:19.761Z,5.07
2022-08-05T13:30:46.291Z,5.50
2022-08-05T13:34:23.461Z,5.05
2022-08-05T13:36:53.372Z,5.12
2022-08-05T13:40:14.604Z,4.90
2022-08-05T13:42:46.812Z,5.28
2022-08-05T13:45:13.551Z,5.10
2022-08-05T13:48:09.486Z,5.03
2022-08-05T13:51:36.490Z,5.37
2022-08-05T13:54:11.962Z,5.15
2022-08-05T13:56:51.132Z,5.30
2022-08-05T13:59:24.217Z,5.70
2022-08-05T14:01:57.405Z,5.53
2022-08-05T14:04:51.621Z,5.05
2022-08-05T14:07:25.742Z,5.50
2022-08-05T14:10:28.124Z,5.20
2022-08-05T14:12:57.377Z,5.20
2022-08-05T14:16:08.237Z,5.57
2022-08-05T14:18:37.972Z,5.37
2022-08-05T14:22:07.310Z,5.43
2022-08-05T14:24:39.091Z,5.35
2022-08-05T14:27:17.527Z,5.40
2022-08-05T14:29:44.648Z,5.30
2022-08-05T14:32:27.214Z,5.47
2022-08-05T14:34:56.868Z,5.40
2022-08-05T14:37:44.764Z,5.32
2022-08-05T14:40:14.210Z,5.53
2022-08-05T14:42:43.644Z,6.10
2022-08-05T14:45:10.897Z,5.28
2022-08-05T14:48:03.726Z,5.75
2022-08-05T14:50:33.182Z,6.05
2022-08-05T14:53:06.658Z,5.55
2022-08-05T14:55:39.950Z,5.95
2022-08-05T14:58:10.995Z,6.10
2022-08-05T15:00:58.430Z,5.80
2022-08-05T15:03:33.809Z,5.78
2022-08-05T15:06:07.482Z,6.05
2022-08-05T15:08:59.118Z,5.90
2022-08-05T15:11:51.983Z,5.85
2022-08-05T15:14:35.704Z,5.80
2022-08-05T15:17:44.563Z,6.22
2022-08-05T15:20:18.282Z,5.95
2022-08-05T15:22:46.702Z,6.15
2022-08-05T15:25:22.492Z,6.32
2022-08-05T15:27:52.226Z,6.40
2022-08-05T15:30:21.319Z,6.07
2022-08-05T15:32:49.041Z,6.05
2022-08-05T15:35:15.636Z,5.78
2022-08-05T15:38:33.086Z,5.90
2022-08-05T15:41:23.358Z,6.00
2022-08-05T15:43:52.326Z,5.90
2022-08-05T15:46:24.007Z,6.07
2022-08-05T15:48:54.360Z,6.35
2022-08-05T15:52:13.901Z,6.30
2022-08-05T15:54:43.703Z,6.72
2022-08-05T15:57:11.063Z,6.78
2022-08-05T15:59:39.288Z,6.93
2022-08-05T16:02:14.865Z,6.43
2022-08-05T16:04:52.106Z,6.90
2022-08-05T16:07:22.943Z,6.87
2022-08-05T16:09:49.725Z,6.62
2022-08-05T16:12:17.261Z,7.18
2022-08-05T16:14:46.413Z,7.07
2022-08-05T16:17:13.525Z,6.80
2022-08-05T16:20:04.927Z,6.65
2022-08-05T16:22:38.765Z,6.85
2022-08-05T16:25:09.735Z,6.80
2022-08-05T16:27:47.055Z,6.50
2022-08-05T16:30:28.756Z,6.85
2022-08-05T16:32:57.022Z,7.35
2022-08-05T16:35:27.895Z,7.60
2022-08-05T16:38:16.289Z,7.10
2022-08-05T16:40:59.799Z,6.28
2022-08-05T16:43:31.205Z,6.75
2022-08-05T16:46:06.099Z,8.50
2022-08-05T16:48:39.620Z,7.85
2022-08-05T16:51:09.105Z,7.97
2022-08-05T16:54:06.270Z,8.25
2022-08-05T16:56:41.891Z,8.48
2022-08-05T16:59:09.715Z,8.63
2022-08-05T17:01:53.008Z,7.87
2022-08-05T17:04:21.087Z,8.15
2022-08-05T17:06:53.171Z,8.43
2022-08-05T17:09:20.522Z,7.72
2022-08-05T17:11:48.756Z,8.30
2022-08-05T17:14:34.114Z,7.70
2022-08-05T17:17:01.152Z,7.20
2022-08-05T17:19:29.247Z,7.35
2022-08-05T17:21:57.704Z,7.43
2022-08-05T17:24:36.498Z,7.10
2022-08-05T17:27:05.670Z,7.25
2022-08-05T17:29:39.960Z,7.65
2022-08-05T17:32:17.185Z,7.50
2022-08-05T17:34:47.775Z,7.80
2022-08-05T17:42:32.151Z,7.82
2022-08-05T17:45:00.460Z,7.40
2022-08-05T17:47:36.714Z,7.25
2022-08-05T17:50:11.335Z,7.20
2022-08-05T17:52:53.326Z,7.50
2022-08-05T17:55:22.283Z,7.95
2022-08-05T17:57:50.306Z,8.88
2022-08-05T18:00:17.237Z,8.20
2022-08-05T18:02:46.472Z,8.73
2022-08-05T18:05:13.669Z,8.80
2022-08-05T18:07:43.829Z,8.95
2022-08-05T18:10:20.516Z,9.27
2022-08-05T18:12:49.263Z,8.77
2022-08-05T18:15:15.895Z,8.85
2022-08-05T18:17:59.229Z,9.25
2022-08-05T18:20:31.845Z,8.90
2022-08-05T18:23:11.342Z,8.93
2022-08-05T18:25:45.176Z,9.00
2022-08-05T18:28:16.012Z,9.20
2022-08-05T18:30:50.958Z,8.95
2022-08-05T18:33:22.977Z,8.55
2022-08-05T18:36:04.299Z,8.50
2022-08-05T18:38:35.986Z,9.45
2022-08-05T18:41:58.535Z,9.10
2022-08-05T18:44:34.662Z,8.60
2022-08-05T18:47:03.256Z,8.35
2022-08-05T18:49:58.404Z,7.80
2022-08-05T18:52:32.971Z,8.70
2022-08-05T18:55:02.348Z,8.63
2022-08-05T18:57:42.976Z,8.60
2022-08-05T19:00:20.750Z,8.95
2022-08-05T19:02:52.166Z,9.27
2022-08-05T19:06:11.945Z,8.40
2022-08-05T19:08:48.425Z,8.68
2022-08-05T19:11:15.761Z,8.90
2022-08-05T19:13:49.922Z,8.88
2022-08-05T19:16:29.394Z,8.70
2022-08-05T19:18:59.715Z,8.85
2022-08-05T19:21:27.553Z,9.70
2022-08-05T19:24:06.441Z,10.40
2022-08-05T19:26:36.600Z,10.15
2022-08-05T19:29:20.685Z,9.30
2022-08-05T19:31:51.217Z,9.57
2022-08-05T19:34:18.596Z,9.27
2022-08-05T19:36:45.395Z,8.80
2022-08-05T19:39:13.993Z,9.02
2022-08-05T19:42:06.263Z,9.60
2022-08-05T19:44:38.731Z,9.25
2022-08-05T19:47:12.349Z,9.15
2022-08-05T19:49:43.831Z,8.90
2022-08-05T19:52:30.300Z,9.10
2022-08-05T19:56:14.154Z,9.40
2022-08-05T19:58:56.135Z,9.30
2022-08-05T20:01:28.338Z,8.90
2022-08-05T20:03:55.236Z,8.73
2022-08-05T20:06:28.744Z,8.88
2022-08-05T20:08:56.015Z,7.82
2022-08-05T20:11:23.852Z,8.07
2022-08-05T20:13:58.475Z,8.15
2022-08-05T20:16:38.375Z,8.18
2022-08-05T20:19:05.405Z,8.52
2022-08-05T20:21:32.028Z,8.70
2022-08-05T20:23:59.897Z,8.00
2022-08-05T20:26:26.876Z,8.20
2022-08-05T20:28:57.388Z,8.10
2022-08-05T20:31:37.092Z,7.47
2022-08-05T20:34:17.863Z,8.10
2022-08-05T20:36:44.403Z,7.80
2022-08-05T20:39:13.447Z,8.00
2022-08-05T20:41:45.294Z,7.75
2022-08-05T20:44:29.086Z,7.85
2022-08-05T20:47:03.281Z,8.15
2022-08-05T20:49:30.391Z,7.80
2022-08-05T20:52:04.959Z,7.87
2022-08-05T20:54:42.873Z,7.65
2022-08-05T20:57:41.894Z,7.85
2022-08-05T21:00:40.619Z,7.65
2022-08-05T21:03:11.362Z,7.75
2022-08-05T21:05:53.941Z,7.00
2022-08-05T21:08:28.140Z,7.20
2022-08-05T21:11:15.174Z,7.20
2022-08-05T21:14:35.088Z,7.05
2022-08-05T21:17:05.267Z,7.60
2022-08-05T21:19:47.422Z,7.20
2022-08-05T21:22:21.569Z,6.62
2022-08-05T21:24:52.390Z,6.93
2022-08-05T21:27:24.921Z,7.35
2022-08-05T21:29:52.413Z,6.95
2022-08-05T21:32:20.874Z,6.90
2022-08-05T21:35:06.739Z,7.15
2022-08-05T21:37:47.191Z,6.60
2022-08-05T21:40:14.284Z,7.62
2022-08-05T21:42:44.788Z,6.80
2022-08-05T21:45:14.276Z,7.62
2022-08-05T21:47:56.287Z,8.27
2022-08-05T21:50:25.139Z,7.65
2022-08-05T21:52:51.697Z,8.00
2022-08-05T21:55:21.603Z,7.45
2022-08-05T21:58:31.956Z,8.25
2022-08-05T22:00:59.820Z,8.77
2022-08-05T22:03:48.560Z,7.78
2022-08-05T22:06:23.154Z,9.02
2022-08-05T22:09:13.762Z,9.32
2022-08-05T22:11:43.003Z,9.60
2022-08-05T22:14:33.885Z,8.18
2022-08-05T22:17:05.390Z,8.02
2022-08-05T22:20:03.164Z,8.65
2022-08-05T22:22:59.132Z,8.35
2022-08-05T22:26:09.833Z,8.50
2022-08-05T22:28:38.584Z,8.05
2022-08-05T22:31:05.992Z,8.90
2022-08-05T22:33:57.621Z,7.07
2022-08-05T22:36:27.400Z,6.40
2022-08-05T22:38:55.586Z,6.87
2022-08-05T22:42:05.058Z,6.87
2022-08-05T22:44:41.078Z,6.93
2022-08-05T22:47:29.986Z,6.57
2022-08-05T22:50:20.079Z,8.50
2022-08-05T22:52:52.758Z,9.27
2022-08-05T22:55:21.732Z,9.23
2022-08-05T22:57:52.730Z,9.23
2022-08-05T23:00:21.655Z,6.60
2022-08-05T23:02:51.253Z,6.32
2022-08-05T23:05:18.579Z,6.72
2022-08-05T23:07:48.885Z,6.43
2022-08-05T23:10:20.982Z,7.55
2022-08-05T23:12:55.046Z,6.40
2022-08-05T23:15:26.885Z,7.03
2022-08-05T23:18:01.105Z,6.90
2022-08-05T23:20:31.491Z,8.43
2022-08-05T23:22:59.130Z,7.35
2022-08-05T23:25:51.955Z,6.85
2022-08-05T23:28:24.148Z,6.68
2022-08-05T23:30:56.673Z,6.60
2022-08-05T23:34:04.699Z,6.28
2022-08-05T23:36:39.803Z,8.05
2022-08-05T23:39:17.219Z,7.62
2022-08-05T23:41:50.971Z,7.93
2022-08-05T23:44:19.806Z,8.32
2022-08-05T23:46:51.813Z,8.27
2022-08-05T23:49:23.902Z,7.97
2022-08-05T23:52:18.717Z,8.18
2022-08-05T23:54:48.494Z,8.23
2022-08-05T23:57:15.169Z,7.87
